createdAt,value
2023-05-22T00:00:35.689Z,15.13
2023-05-22T00:03:04.338Z,15.52
2023-05-22T00:05:34.489Z,15.13
2023-05-22T00:08:01.532Z,16.30
2023-05-22T00:10:28.877Z,15.95
2023-05-22T00:12:56.165Z,17.50
2023-05-22T00:15:23.052Z,17.00
2023-05-22T00:17:50.217Z,16.27
2023-05-22T00:20:17.519Z,16.85
2023-05-22T00:22:44.923Z,17.35
2023-05-22T00:25:11.986Z,17.17
2023-05-22T00:27:38.902Z,17.10
2023-05-22T00:30:08.536Z,17.00
2023-05-22T00:32:36.067Z,17.27
2023-05-22T00:35:03.671Z,17.57
2023-05-22T00:37:30.606Z,16.77
2023-05-22T00:39:57.606Z,17.23
2023-05-22T00:42:26.018Z,16.63
2023-05-22T00:44:53.174Z,17.97
2023-05-22T00:47:21.858Z,17.37
2023-05-22T00:49:48.646Z,17.37
2023-05-22T00:52:17.671Z,18.97
2023-05-22T00:54:46.330Z,18.03
2023-05-22T00:57:13.510Z,18.67
2023-05-22T00:59:40.503Z,18.93
2023-05-22T01:02:08.078Z,17.93
2023-05-22T01:04:35.322Z,18.10
2023-05-22T01:07:03.106Z,18.70
2023-05-22T01:09:30.840Z,18.33
2023-05-22T01:12:27.530Z,18.83
2023-05-22T01:15:07.131Z,19.13
2023-05-22T01:17:55.230Z,19.97
2023-05-22T01:20:37.233Z,20.77
2023-05-22T01:23:11.663Z,20.33
2023-05-22T01:26:10.826Z,19.63
2023-05-22T01:28:56.260Z,20.73
2023-05-22T01:31:32.846Z,20.40
2023-05-22T01:34:02.547Z,20.07
2023-05-22T01:36:35.189Z,20.33
2023-05-22T01:39:06.090Z,20.93
2023-05-22T01:41:34.414Z,21.13
2023-05-22T01:44:02.355Z,20.90
2023-05-22T01:46:30.276Z,21.43
2023-05-22T01:48:58.142Z,21.17
2023-05-22T01:51:57.683Z,22.57
2023-05-22T01:54:33.549Z,22.07
2023-05-22T01:57:25.012Z,21.27
2023-05-22T02:00:09.909Z,22.93
2023-05-22T02:02:39.575Z,22.63
2023-05-22T02:05:08.561Z,21.80
2023-05-22T02:07:39.679Z,21.53
2023-05-22T02:10:10.131Z,20.87
2023-05-22T02:12:38.009Z,21.90
2023-05-22T02:15:07.171Z,21.20
2023-05-22T02:17:40.941Z,22.13
2023-05-22T02:20:17.068Z,21.00
2023-05-22T02:22:45.889Z,21.43
2023-05-22T02:25:15.017Z,21.07
2023-05-22T02:27:46.089Z,20.93
2023-05-22T02:30:14.152Z,20.63
2023-05-22T02:32:42.034Z,20.73
2023-05-22T02:35:09.577Z,20.30
2023-05-22T02:37:37.284Z,20.50
2023-05-22T02:40:07.864Z,19.50
2023-05-22T02:42:34.994Z,20.30
2023-05-22T02:45:02.881Z,21.00
2023-05-22T02:47:29.812Z,20.53
2023-05-22T02:49:57.998Z,21.13
2023-05-22T02:52:25.487Z,20.00
2023-05-22T02:54:52.477Z,20.30
2023-05-22T02:57:19.425Z,19.67
2023-05-22T02:59:46.497Z,20.27
2023-05-22T03:02:13.890Z,20.67
2023-05-22T03:04:40.936Z,19.20
2023-05-22T03:07:08.250Z,20.30
2023-05-22T03:09:35.052Z,20.80
2023-05-22T03:12:01.818Z,20.50
2023-05-22T03:14:29.452Z,19.40
2023-05-22T03:16:57.052Z,20.23
2023-05-22T03:19:24.037Z,19.17
2023-05-22T03:21:51.179Z,20.80
2023-05-22T03:24:18.205Z,20.10
2023-05-22T03:26:45.080Z,19.93
2023-05-22T03:29:12.128Z,20.00
2023-05-22T03:31:38.931Z,20.10
2023-05-22T03:34:06.241Z,20.27
2023-05-22T03:36:36.200Z,20.47
2023-05-22T03:39:04.031Z,21.80
2023-05-22T03:41:31.169Z,21.37
2023-05-22T03:43:58.557Z,22.10
2023-05-22T03:46:25.676Z,21.93
2023-05-22T03:48:52.826Z,20.10
2023-05-22T03:51:20.404Z,20.73
2023-05-22T03:53:47.416Z,21.57
2023-05-22T03:56:14.550Z,20.87
2023-05-22T03:58:41.329Z,21.07
2023-05-22T04:01:09.996Z,20.53
2023-05-22T04:03:37.978Z,21.33
2023-05-22T04:06:05.872Z,22.17
2023-05-22T04:08:32.968Z,21.40
2023-05-22T04:11:00.102Z,21.03
2023-05-22T04:13:28.198Z,20.00
2023-05-22T04:15:56.785Z,20.60
2023-05-22T04:18:24.324Z,21.33
2023-05-22T04:20:52.201Z,20.93
2023-05-22T04:23:18.978Z,19.97
2023-05-22T04:25:48.100Z,19.40
2023-05-22T04:28:17.563Z,19.37
2023-05-22T04:30:44.874Z,18.73
2023-05-22T04:33:12.937Z,18.27
2023-05-22T04:35:40.945Z,17.90
2023-05-22T04:38:08.350Z,18.97
2023-05-22T04:40:38.459Z,18.73
2023-05-22T04:43:05.590Z,19.17
2023-05-22T04:45:33.003Z,18.27
2023-05-22T04:48:02.833Z,17.93
2023-05-22T04:50:32.819Z,18.93
2023-05-22T04:53:00.269Z,18.13
2023-05-22T04:55:27.223Z,17.90
2023-05-22T04:57:54.056Z,18.97
2023-05-22T05:00:26.530Z,17.57
2023-05-22T05:02:53.695Z,18.37
2023-05-22T05:05:20.708Z,18.03
2023-05-22T05:07:50.182Z,19.13
2023-05-22T05:10:17.421Z,19.67
2023-05-22T05:12:44.457Z,19.27
2023-05-22T05:15:11.913Z,18.33
2023-05-22T05:17:38.773Z,18.57
2023-05-22T05:20:07.238Z,19.17
2023-05-22T05:22:34.571Z,19.37
2023-05-22T05:25:01.838Z,19.23
2023-05-22T05:27:28.678Z,20.40
2023-05-22T05:29:55.622Z,19.23
2023-05-22T05:32:22.810Z,20.27
2023-05-22T05:34:49.733Z,19.70
2023-05-22T05:37:17.357Z,18.30
2023-05-22T05:39:44.185Z,18.77
2023-05-22T05:42:11.142Z,17.90
2023-05-22T05:44:38.383Z,17.87
2023-05-22T05:47:06.316Z,16.53
2023-05-22T05:49:35.663Z,17.95
2023-05-22T05:52:03.245Z,17.95
2023-05-22T05:54:30.091Z,17.63
2023-05-22T05:56:56.851Z,17.23
2023-05-22T05:59:24.597Z,17.33
2023-05-22T06:01:51.499Z,17.30
2023-05-22T06:04:18.498Z,16.65
2023-05-22T06:06:45.459Z,15.98
2023-05-22T06:09:12.612Z,17.08
2023-05-22T06:11:39.464Z,16.67
2023-05-22T06:14:08.626Z,17.30
2023-05-22T06:16:36.016Z,15.95
2023-05-22T06:19:03.018Z,16.35
2023-05-22T06:21:30.162Z,16.02
2023-05-22T06:23:57.363Z,15.25
2023-05-22T06:26:25.947Z,14.95
2023-05-22T06:28:54.369Z,15.57
2023-05-22T06:31:22.953Z,15.30
2023-05-22T06:33:50.531Z,15.30
2023-05-22T06:36:17.781Z,15.93
2023-05-22T06:38:46.092Z,15.90
2023-05-22T06:41:12.865Z,15.18
2023-05-22T06:43:39.881Z,15.95
2023-05-22T06:46:07.265Z,15.10
2023-05-22T06:48:37.722Z,14.48
2023-05-22T06:51:04.966Z,15.27
2023-05-22T06:53:32.077Z,15.13
2023-05-22T06:55:59.171Z,14.82
2023-05-22T06:58:26.306Z,14.40
2023-05-22T07:00:54.428Z,13.65
2023-05-22T07:03:21.824Z,14.18
2023-05-22T07:05:48.944Z,14.02
2023-05-22T07:08:16.178Z,13.27
2023-05-22T07:10:43.162Z,12.70
2023-05-22T07:13:10.056Z,12.63
2023-05-22T07:15:37.262Z,13.23
2023-05-22T07:18:04.225Z,13.80
2023-05-22T07:20:31.142Z,13.18
2023-05-22T07:22:58.645Z,13.20
2023-05-22T07:25:25.568Z,12.77
2023-05-22T07:27:52.781Z,13.27
2023-05-22T07:30:20.392Z,12.25
2023-05-22T07:32:48.207Z,12.50
2023-05-22T07:35:15.242Z,13.27
2023-05-22T07:37:42.094Z,12.80
2023-05-22T07:40:09.832Z,12.65
2023-05-22T07:42:36.902Z,13.32
2023-05-22T07:45:04.012Z,12.13
2023-05-22T07:47:30.833Z,12.00
2023-05-22T07:49:58.012Z,11.73
2023-05-22T07:52:25.220Z,11.52
2023-05-22T07:54:52.711Z,11.52
2023-05-22T07:57:20.478Z,11.25
2023-05-22T07:59:47.510Z,11.50
2023-05-22T08:02:14.598Z,10.88
2023-05-22T08:04:41.773Z,11.82
2023-05-22T08:07:08.962Z,11.10
2023-05-22T08:09:35.820Z,11.50
2023-05-22T08:12:03.264Z,11.65
2023-05-22T08:14:30.795Z,11.35
2023-05-22T08:16:59.245Z,12.07
2023-05-22T08:19:26.602Z,10.95
2023-05-22T08:21:58.107Z,11.48
2023-05-22T08:24:28.812Z,11.60
2023-05-22T08:26:58.571Z,11.00
2023-05-22T08:29:25.387Z,10.85
2023-05-22T08:31:54.141Z,10.38
2023-05-22T08:34:21.350Z,10.85
2023-05-22T08:36:49.822Z,11.05
2023-05-22T08:39:19.329Z,11.25
2023-05-22T08:41:47.435Z,11.40
2023-05-22T08:44:14.737Z,11.30
2023-05-22T08:46:45.905Z,11.43
2023-05-22T08:49:13.295Z,10.93
2023-05-22T08:51:46.770Z,10.52
2023-05-22T08:54:15.941Z,11.18
2023-05-22T08:56:55.687Z,9.85
2023-05-22T08:59:24.202Z,10.45
2023-05-22T09:01:53.105Z,9.90
2023-05-22T09:04:23.911Z,10.07
2023-05-22T09:06:51.511Z,10.02
2023-05-22T09:09:18.717Z,10.25
2023-05-22T09:11:45.901Z,10.02
2023-05-22T09:14:13.569Z,10.13
2023-05-22T09:16:48.664Z,10.52
2023-05-22T09:19:16.350Z,10.23
2023-05-22T09:21:48.143Z,10.05
2023-05-22T09:24:15.192Z,11.00
2023-05-22T09:26:42.518Z,10.02
2023-05-22T09:29:09.865Z,11.13
2023-05-22T09:31:45.014Z,10.70
2023-05-22T09:34:15.859Z,10.52
2023-05-22T09:36:43.356Z,10.50
2023-05-22T09:39:11.266Z,9.60
2023-05-22T09:41:40.318Z,10.15
2023-05-22T09:44:15.823Z,10.82
2023-05-22T09:46:47.807Z,10.82
2023-05-22T09:49:17.677Z,10.27
2023-05-22T09:51:50.352Z,10.00
2023-05-22T09:54:22.080Z,10.52
2023-05-22T09:56:51.693Z,10.35
2023-05-22T09:59:27.977Z,10.63
2023-05-22T10:01:57.516Z,10.73
2023-05-22T10:04:29.142Z,10.23
2023-05-22T10:06:58.922Z,9.93
2023-05-22T10:09:35.094Z,10.13
2023-05-22T10:12:07.774Z,10.63
2023-05-22T10:14:37.481Z,10.82
2023-05-22T10:17:07.241Z,10.63
2023-05-22T10:19:36.633Z,10.50
2023-05-22T10:22:07.527Z,10.65
2023-05-22T10:24:36.849Z,10.52
2023-05-22T10:27:05.065Z,10.90
2023-05-22T10:29:40.961Z,10.55
2023-05-22T10:32:34.351Z,10.63
2023-05-22T10:35:08.901Z,11.35
2023-05-22T10:37:51.096Z,10.85
2023-05-22T10:40:36.798Z,10.88
2023-05-22T10:43:04.272Z,11.60
2023-05-22T10:45:31.884Z,10.88
2023-05-22T10:48:22.123Z,11.13
2023-05-22T10:50:54.990Z,11.02
2023-05-22T10:53:31.797Z,11.07
2023-05-22T10:56:13.039Z,11.20
2023-05-22T10:58:44.031Z,12.02
2023-05-22T11:01:16.407Z,11.90
2023-05-22T11:04:05.461Z,12.27
2023-05-22T11:06:39.185Z,11.38
2023-05-22T11:09:40.009Z,11.98
2023-05-22T11:12:26.273Z,12.73
2023-05-22T11:15:10.424Z,14.43
2023-05-22T11:17:43.074Z,14.15
2023-05-22T11:20:22.791Z,14.07
2023-05-22T11:23:06.988Z,14.77
2023-05-22T11:25:41.790Z,15.15
2023-05-22T11:28:10.728Z,14.18
2023-05-22T11:30:38.761Z,15.25
2023-05-22T11:33:07.855Z,14.95
2023-05-22T11:35:36.299Z,13.48
2023-05-22T11:38:09.080Z,14.00
2023-05-22T11:40:38.452Z,13.85
2023-05-22T11:43:06.417Z,14.52
2023-05-22T11:45:39.212Z,14.45
2023-05-22T11:48:09.422Z,14.30
2023-05-22T11:50:42.370Z,14.18
2023-05-22T11:53:12.103Z,14.57
2023-05-22T11:55:40.420Z,14.50
2023-05-22T11:58:10.834Z,14.65
2023-05-22T12:00:39.789Z,14.82
2023-05-22T12:03:07.932Z,14.68
2023-05-22T12:05:37.334Z,14.98
2023-05-22T12:08:05.740Z,13.38
2023-05-22T12:10:34.498Z,14.65
2023-05-22T12:13:03.195Z,14.48
2023-05-22T12:15:29.968Z,14.93
2023-05-22T12:17:57.104Z,14.55
2023-05-22T12:20:30.476Z,14.60
2023-05-22T12:22:57.415Z,15.50
2023-05-22T12:25:25.035Z,14.50
2023-05-22T12:27:52.115Z,14.38
2023-05-22T12:30:19.777Z,14.48
2023-05-22T12:32:52.385Z,14.27
2023-05-22T12:35:19.613Z,15.57
2023-05-22T12:37:54.014Z,14.98
2023-05-22T12:40:23.558Z,15.30
2023-05-22T12:42:50.778Z,16.83
2023-05-22T12:45:18.759Z,16.40
2023-05-22T12:47:47.192Z,15.90
2023-05-22T12:50:15.766Z,16.45
2023-05-22T12:52:44.498Z,16.60
2023-05-22T12:55:13.648Z,18.23
2023-05-22T12:57:42.051Z,16.60
2023-05-22T13:00:11.929Z,15.95
2023-05-22T13:02:40.592Z,16.00
2023-05-22T13:05:09.303Z,17.30
2023-05-22T13:07:41.456Z,17.35
2023-05-22T13:10:10.471Z,16.83
2023-05-22T13:12:39.629Z,17.98
2023-05-22T13:15:08.134Z,17.58
2023-05-22T13:17:36.488Z,17.70
2023-05-22T13:20:05.703Z,16.10
2023-05-22T13:22:33.872Z,16.45
2023-05-22T13:25:01.750Z,17.30
2023-05-22T13:27:32.777Z,16.63
2023-05-22T13:30:01.370Z,17.60
2023-05-22T13:32:30.981Z,17.55
2023-05-22T13:34:59.428Z,17.42
2023-05-22T13:37:27.727Z,16.30
2023-05-22T13:39:56.406Z,16.95
2023-05-22T13:42:23.558Z,16.45
2023-05-22T13:44:50.880Z,16.17
2023-05-22T13:47:18.654Z,17.00
2023-05-22T13:49:47.230Z,15.85
2023-05-22T13:52:14.251Z,15.35
2023-05-22T13:54:41.581Z,16.77
2023-05-22T13:57:08.443Z,17.08
2023-05-22T13:59:35.610Z,16.92
2023-05-22T14:02:03.370Z,16.15
2023-05-22T14:04:30.563Z,16.33
2023-05-22T14:06:57.521Z,17.63
2023-05-22T14:09:24.830Z,16.75
2023-05-22T14:11:53.061Z,16.67
2023-05-22T14:14:24.088Z,17.52
2023-05-22T14:16:51.836Z,16.80
2023-05-22T14:19:19.655Z,17.63
2023-05-22T14:21:51.405Z,18.13
2023-05-22T14:24:18.596Z,18.88
2023-05-22T14:26:45.483Z,19.00
2023-05-22T14:29:12.848Z,20.05
2023-05-22T14:31:50.526Z,9.55
2023-05-22T14:34:19.479Z,6.25
2023-05-22T14:36:46.860Z,5.95
2023-05-22T14:39:13.779Z,5.75
2023-05-22T14:41:40.882Z,5.68
2023-05-22T14:44:08.315Z,5.90
2023-05-22T14:46:35.357Z,7.03
2023-05-22T14:49:02.476Z,6.90
2023-05-22T14:51:29.696Z,7.13
2023-05-22T14:53:56.657Z,7.10
2023-05-22T14:56:24.720Z,6.70
2023-05-22T14:58:51.576Z,6.82
2023-05-22T15:01:18.659Z,5.45
2023-05-22T15:03:46.620Z,4.80
2023-05-22T15:06:13.610Z,4.65
2023-05-22T15:08:41.590Z,4.68
2023-05-22T15:11:08.908Z,4.35
2023-05-22T15:13:37.053Z,3.42
2023-05-22T15:16:04.519Z,3.60
2023-05-22T15:18:31.622Z,3.60
2023-05-22T15:20:59.420Z,4.07
2023-05-22T15:23:27.007Z,3.83
2023-05-22T15:25:54.557Z,4.45
2023-05-22T15:28:23.186Z,4.32
2023-05-22T15:30:52.180Z,4.40
2023-05-22T15:33:20.590Z,5.15
2023-05-22T15:35:48.691Z,4.97
2023-05-22T15:38:16.804Z,4.60
2023-05-22T15:40:45.639Z,5.32
2023-05-22T15:43:13.785Z,5.43
2023-05-22T15:45:40.900Z,5.63
2023-05-22T15:48:08.799Z,5.47
2023-05-22T15:50:35.662Z,5.40
2023-05-22T15:53:02.606Z,5.63
2023-05-22T15:55:30.087Z,5.30
2023-05-22T15:57:58.423Z,5.45
2023-05-22T16:00:27.673Z,5.60
2023-05-22T16:02:54.962Z,5.70
2023-05-22T16:05:22.124Z,5.70
2023-05-22T16:07:49.023Z,5.97
2023-05-22T16:10:16.093Z,5.32
2023-05-22T16:12:42.937Z,6.35
2023-05-22T16:15:10.235Z,7.07
2023-05-22T16:17:39.447Z,8.57
2023-05-22T16:20:08.812Z,8.48
2023-05-22T16:22:48.111Z,10.27
2023-05-22T16:25:19.064Z,10.53
2023-05-22T16:27:45.981Z,9.20
2023-05-22T16:30:17.110Z,9.10
2023-05-22T16:32:48.406Z,8.87
2023-05-22T16:35:16.619Z,8.87
2023-05-22T16:37:44.195Z,8.50
2023-05-22T16:40:11.730Z,8.13
2023-05-22T16:42:38.850Z,8.30
2023-05-22T16:45:06.719Z,7.87
2023-05-22T16:47:34.025Z,8.17
2023-05-22T16:50:01.176Z,9.13
2023-05-22T16:52:28.269Z,8.43
2023-05-22T16:54:55.471Z,8.70
2023-05-22T16:57:22.761Z,8.83
2023-05-22T16:59:50.188Z,9.77
2023-05-22T17:02:19.026Z,10.17
2023-05-22T17:04:47.067Z,9.70
2023-05-22T17:07:15.556Z,10.80
2023-05-22T17:09:45.368Z,11.40
2023-05-22T17:12:13.466Z,11.23
2023-05-22T17:14:41.020Z,10.83
2023-05-22T17:17:08.239Z,10.97
2023-05-22T17:19:36.033Z,11.67
2023-05-22T17:22:03.415Z,12.27
2023-05-22T17:24:30.666Z,12.53
2023-05-22T17:26:57.834Z,13.90
2023-05-22T17:29:28.268Z,12.37
2023-05-22T17:31:55.612Z,12.83
2023-05-22T17:34:24.438Z,11.80
2023-05-22T17:36:51.263Z,13.03
2023-05-22T17:39:18.445Z,13.93
2023-05-22T17:41:45.376Z,12.87
2023-05-22T17:44:12.276Z,12.67
2023-05-22T17:46:42.862Z,12.77
2023-05-22T17:49:09.882Z,13.40
2023-05-22T17:51:38.062Z,13.27
2023-05-22T17:54:09.791Z,12.57
2023-05-22T17:56:39.520Z,13.63
2023-05-22T17:59:07.747Z,12.13
2023-05-22T18:01:35.930Z,11.60
2023-05-22T18:04:04.831Z,11.60
2023-05-22T18:06:34.798Z,11.40
2023-05-22T18:09:04.628Z,11.70
2023-05-22T18:11:32.534Z,11.60
2023-05-22T18:13:59.969Z,10.77
2023-05-22T18:16:28.218Z,9.37
2023-05-22T18:18:55.453Z,7.10
2023-05-22T18:21:23.991Z,6.53
2023-05-22T18:23:51.616Z,7.13
2023-05-22T18:26:19.141Z,5.93
2023-05-22T18:28:49.019Z,5.60
2023-05-22T18:31:18.090Z,6.40
2023-05-22T18:33:46.821Z,7.00
2023-05-22T18:36:14.380Z,7.43
2023-05-22T18:38:41.687Z,7.73
2023-05-22T18:41:09.218Z,8.47
2023-05-22T18:43:36.087Z,8.53
2023-05-22T18:46:03.557Z,9.20
2023-05-22T18:48:31.683Z,9.00
2023-05-22T18:50:59.030Z,9.57
2023-05-22T18:53:26.460Z,10.60
2023-05-22T18:55:54.206Z,10.73
2023-05-22T18:58:21.300Z,11.30
2023-05-22T19:00:48.877Z,11.33
2023-05-22T19:03:15.864Z,13.43
2023-05-22T19:05:43.142Z,13.40
2023-05-22T19:08:10.656Z,13.13
2023-05-22T19:10:37.633Z,13.47
2023-05-22T19:13:04.567Z,14.40
2023-05-22T19:15:31.912Z,14.27
2023-05-22T19:17:58.850Z,14.90
2023-05-22T19:20:26.148Z,15.40
2023-05-22T19:22:54.045Z,15.70
2023-05-22T19:25:21.247Z,15.97
2023-05-22T19:27:48.520Z,15.80
2023-05-22T19:30:16.765Z,16.40
2023-05-22T19:32:43.904Z,15.93
2023-05-22T19:35:13.688Z,15.70
2023-05-22T19:37:40.958Z,16.67
2023-05-22T19:40:09.734Z,16.00
2023-05-22T19:42:38.899Z,16.30
2023-05-22T19:45:07.417Z,15.67
2023-05-22T19:47:34.952Z,16.10
2023-05-22T19:50:02.222Z,15.13
2023-05-22T19:52:29.417Z,15.60
2023-05-22T19:54:56.270Z,15.13
2023-05-22T19:57:23.135Z,14.73
2023-05-22T19:59:50.980Z,15.40
2023-05-22T20:02:17.940Z,14.63
2023-05-22T20:04:48.324Z,14.10
2023-05-22T20:07:15.814Z,14.90
2023-05-22T20:09:42.987Z,14.83
2023-05-22T20:12:10.539Z,15.97
2023-05-22T20:14:37.973Z,15.50
2023-05-22T20:17:05.698Z,14.77
2023-05-22T20:19:34.786Z,15.53
2023-05-22T20:22:03.083Z,16.50
2023-05-22T20:24:31.010Z,15.33
2023-05-22T20:26:57.938Z,15.53
2023-05-22T20:29:25.332Z,15.53
2023-05-22T20:31:54.984Z,14.60
2023-05-22T20:34:23.535Z,14.80
2023-05-22T20:36:50.777Z,13.70
2023-05-22T20:39:18.095Z,15.10
2023-05-22T20:41:45.546Z,14.67
2023-05-22T20:44:12.749Z,14.83
2023-05-22T20:46:39.768Z,16.27
2023-05-22T20:49:06.819Z,17.80
2023-05-22T20:51:34.290Z,17.30
2023-05-22T20:54:01.384Z,18.43
2023-05-22T20:56:28.907Z,18.17
2023-05-22T20:58:56.452Z,18.07
2023-05-22T21:01:24.949Z,19.40
2023-05-22T21:03:56.620Z,20.33
2023-05-22T21:06:23.772Z,21.60
2023-05-22T21:08:54.200Z,22.83
2023-05-22T21:11:21.449Z,23.90
2023-05-22T21:13:48.347Z,23.67
2023-05-22T21:16:15.536Z,27.40
2023-05-22T21:18:43.075Z,28.63
2023-05-22T21:21:10.115Z,28.43
2023-05-22T21:23:37.427Z,29.37
2023-05-22T21:26:04.731Z,30.17
2023-05-22T21:28:31.710Z,31.53
2023-05-22T21:31:00.717Z,31.47
2023-05-22T21:33:27.953Z,32.43
2023-05-22T21:35:54.727Z,35.03
2023-05-22T21:38:29.392Z,34.60
2023-05-22T21:40:56.369Z,37.57
2023-05-22T21:43:25.432Z,36.93
2023-05-22T21:45:52.239Z,35.80
2023-05-22T21:48:19.288Z,38.80
2023-05-22T21:50:46.513Z,37.30
2023-05-22T21:53:13.780Z,40.03
2023-05-22T21:55:41.042Z,38.00
2023-05-22T21:58:08.117Z,39.20
2023-05-22T22:00:41.226Z,39.00
2023-05-22T22:03:08.642Z,38.97
2023-05-22T22:05:36.090Z,40.20
2023-05-22T22:08:03.114Z,39.20
2023-05-22T22:10:30.186Z,40.10
2023-05-22T22:12:57.036Z,39.53
2023-05-22T22:15:24.003Z,41.37
2023-05-22T22:17:52.501Z,39.33
2023-05-22T22:20:30.380Z,37.53
2023-05-22T22:23:07.714Z,36.10
2023-05-22T22:25:34.827Z,33.40
2023-05-22T22:28:01.848Z,31.03
2023-05-22T22:30:29.471Z,30.40
2023-05-22T22:32:56.708Z,29.57
2023-05-22T22:35:23.555Z,30.03
2023-05-22T22:37:51.132Z,30.27
2023-05-22T22:40:18.878Z,30.10
2023-05-22T22:42:45.899Z,30.07
2023-05-22T22:45:12.948Z,30.00
2023-05-22T22:47:39.853Z,29.03
2023-05-22T22:50:07.575Z,26.93
2023-05-22T22:52:34.607Z,27.10
2023-05-22T22:55:02.212Z,26.97
2023-05-22T22:57:29.100Z,26.37
2023-05-22T22:59:57.599Z,26.80
2023-05-22T23:02:24.517Z,24.80
2023-05-22T23:04:51.757Z,24.87
2023-05-22T23:07:18.828Z,25.57
2023-05-22T23:09:45.648Z,22.13
2023-05-22T23:12:12.635Z,22.83
2023-05-22T23:14:40.099Z,22.17
2023-05-22T23:17:06.870Z,21.40
2023-05-22T23:19:33.774Z,22.97
2023-05-22T23:22:00.799Z,21.37
2023-05-22T23:24:27.611Z,20.40
2023-05-22T23:26:54.906Z,21.80
2023-05-22T23:29:22.019Z,21.57
2023-05-22T23:31:50.657Z,21.67
2023-05-22T23:34:18.005Z,22.50
2023-05-22T23:36:45.115Z,22.03
2023-05-22T23:39:12.013Z,21.73
2023-05-22T23:41:38.869Z,21.10
2023-05-22T23:44:06.373Z,20.77
2023-05-22T23:46:33.253Z,20.50
2023-05-22T23:49:00.277Z,19.80
2023-05-22T23:51:27.070Z,19.17
2023-05-22T23:53:54.160Z,19.80
2023-05-22T23:56:21.853Z,20.27
2023-05-22T23:58:48.947Z,19.23
